sensor_id;sensor_type;location;lat;lon;timestamp;P1;durP1;ratioP1;P2;durP2;ratioP2
9559;SDS011;4818;50.860;4.648;2023-04-03T00:00:14;6.03;;;3.80;;
9559;SDS011;4818;50.860;4.648;2023-04-03T00:02:40;11.38;;;4.30;;
9559;SDS011;4818;50.860;4.648;2023-04-03T00:05:07;6.13;;;4.05;;
9559;SDS011;4818;50.860;4.648;2023-04-03T00:07:33;8.68;;;3.72;;
9559;SDS011;4818;50.860;4.648;2023-04-03T00:09:59;8.02;;;4.38;;
9559;SDS011;4818;50.860;4.648;2023-04-03T00:12:25;9.27;;;4.38;;
9559;SDS011;4818;50.860;4.648;2023-04-03T00:14:51;7.93;;;3.83;;
9559;SDS011;4818;50.860;4.648;2023-04-03T00:17:18;9.02;;;3.90;;
9559;SDS011;4818;50.860;4.648;2023-04-03T00:19:44;7.20;;;3.47;;
9559;SDS011;4818;50.860;4.648;2023-04-03T00:22:10;7.15;;;3.80;;
9559;SDS011;4818;50.860;4.648;2023-04-03T00:24:36;6.97;;;4.30;;
9559;SDS011;4818;50.860;4.648;2023-04-03T00:27:02;8.48;;;4.05;;
9559;SDS011;4818;50.860;4.648;2023-04-03T00:29:28;7.93;;;3.42;;
9559;SDS011;4818;50.860;4.648;2023-04-03T00:31:55;7.15;;;3.60;;
9559;SDS011;4818;50.860;4.648;2023-04-03T00:34:21;6.43;;;3.95;;
9559;SDS011;4818;50.860;4.648;2023-04-03T00:36:47;8.15;;;4.60;;
9559;SDS011;4818;50.860;4.648;2023-04-03T00:39:13;12.18;;;4.63;;
9559;SDS011;4818;50.860;4.648;2023-04-03T00:41:40;7.93;;;4.38;;
9559;SDS011;4818;50.860;4.648;2023-04-03T00:44:19;6.53;;;3.65;;
9559;SDS011;4818;50.860;4.648;2023-04-03T00:46:45;7.68;;;3.95;;
9559;SDS011;4818;50.860;4.648;2023-04-03T00:49:12;12.20;;;4.88;;
9559;SDS011;4818;50.860;4.648;2023-04-03T00:51:38;7.90;;;3.63;;
9559;SDS011;4818;50.860;4.648;2023-04-03T00:54:05;9.55;;;3.45;;
9559;SDS011;4818;50.860;4.648;2023-04-03T00:56:31;5.70;;;3.47;;
9559;SDS011;4818;50.860;4.648;2023-04-03T00:58:59;8.60;;;4.30;;
9559;SDS011;4818;50.860;4.648;2023-04-03T01:01:27;6.13;;;4.22;;
9559;SDS011;4818;50.860;4.648;2023-04-03T01:03:54;8.40;;;3.65;;
9559;SDS011;4818;50.860;4.648;2023-04-03T01:06:21;7.70;;;3.40;;
9559;SDS011;4818;50.860;4.648;2023-04-03T01:08:49;7.80;;;3.88;;
9559;SDS011;4818;50.860;4.648;2023-04-03T01:11:16;6.55;;;2.95;;
9559;SDS011;4818;50.860;4.648;2023-04-03T01:13:42;4.50;;;3.30;;
9559;SDS011;4818;50.860;4.648;2023-04-03T01:16:08;5.63;;;3.58;;
9559;SDS011;4818;50.860;4.648;2023-04-03T01:18:36;8.35;;;3.72;;
9559;SDS011;4818;50.860;4.648;2023-04-03T01:26:37;6.03;;;3.43;;
9559;SDS011;4818;50.860;4.648;2023-04-03T01:29:04;8.38;;;3.90;;
9559;SDS011;4818;50.860;4.648;2023-04-03T01:31:44;6.70;;;3.83;;
9559;SDS011;4818;50.860;4.648;2023-04-03T01:34:11;7.18;;;4.05;;
9559;SDS011;4818;50.860;4.648;2023-04-03T01:36:37;5.85;;;3.90;;
9559;SDS011;4818;50.860;4.648;2023-04-03T01:39:03;6.22;;;3.30;;
9559;SDS011;4818;50.860;4.648;2023-04-03T01:41:29;5.85;;;4.18;;
9559;SDS011;4818;50.860;4.648;2023-04-03T01:43:56;7.13;;;3.70;;
9559;SDS011;4818;50.860;4.648;2023-04-03T01:46:22;9.82;;;3.78;;
9559;SDS011;4818;50.860;4.648;2023-04-03T01:48:48;6.90;;;3.67;;
9559;SDS011;4818;50.860;4.648;2023-04-03T01:51:15;11.60;;;3.47;;
9559;SDS011;4818;50.860;4.648;2023-04-03T01:53:41;7.07;;;3.92;;
9559;SDS011;4818;50.860;4.648;2023-04-03T01:56:07;7.45;;;3.70;;
9559;SDS011;4818;50.860;4.648;2023-04-03T01:58:33;6.60;;;3.88;;
9559;SDS011;4818;50.860;4.648;2023-04-03T02:00:59;8.75;;;4.05;;
9559;SDS011;4818;50.860;4.648;2023-04-03T02:03:26;10.88;;;4.72;;
9559;SDS011;4818;50.860;4.648;2023-04-03T02:05:52;8.68;;;4.40;;
9559;SDS011;4818;50.860;4.648;2023-04-03T02:08:19;7.20;;;4.20;;
9559;SDS011;4818;50.860;4.648;2023-04-03T02:10:48;6.50;;;3.78;;
9559;SDS011;4818;50.860;4.648;2023-04-03T02:13:15;8.95;;;3.83;;
9559;SDS011;4818;50.860;4.648;2023-04-03T02:15:41;8.10;;;4.32;;
9559;SDS011;4818;50.860;4.648;2023-04-03T02:18:08;5.97;;;4.30;;
9559;SDS011;4818;50.860;4.648;2023-04-03T02:20:34;6.10;;;3.35;;
9559;SDS011;4818;50.860;4.648;2023-04-03T02:23:00;17.60;;;5.07;;
9559;SDS011;4818;50.860;4.648;2023-04-03T02:25:27;7.38;;;4.35;;
9559;SDS011;4818;50.860;4.648;2023-04-03T02:27:53;6.90;;;4.00;;
9559;SDS011;4818;50.860;4.648;2023-04-03T02:30:19;11.43;;;5.10;;
9559;SDS011;4818;50.860;4.648;2023-04-03T02:32:45;6.82;;;4.28;;
9559;SDS011;4818;50.860;4.648;2023-04-03T02:35:11;6.40;;;4.07;;
9559;SDS011;4818;50.860;4.648;2023-04-03T02:37:38;5.68;;;3.97;;
9559;SDS011;4818;50.860;4.648;2023-04-03T02:40:05;6.85;;;3.80;;
9559;SDS011;4818;50.860;4.648;2023-04-03T02:42:31;7.80;;;4.13;;
9559;SDS011;4818;50.860;4.648;2023-04-03T02:44:57;6.47;;;3.78;;
9559;SDS011;4818;50.860;4.648;2023-04-03T02:47:25;6.78;;;3.63;;
9559;SDS011;4818;50.860;4.648;2023-04-03T02:49:51;7.28;;;3.85;;
9559;SDS011;4818;50.860;4.648;2023-04-03T02:52:18;8.55;;;4.20;;
9559;SDS011;4818;50.860;4.648;2023-04-03T02:54:44;6.35;;;3.47;;
9559;SDS011;4818;50.860;4.648;2023-04-03T02:57:10;4.90;;;3.47;;
9559;SDS011;4818;50.860;4.648;2023-04-03T02:59:36;11.27;;;3.60;;
9559;SDS011;4818;50.860;4.648;2023-04-03T03:02:06;7.32;;;4.10;;
9559;SDS011;4818;50.860;4.648;2023-04-03T03:04:32;7.93;;;3.83;;
9559;SDS011;4818;50.860;4.648;2023-04-03T03:06:58;5.18;;;3.80;;
9559;SDS011;4818;50.860;4.648;2023-04-03T03:09:24;7.95;;;4.57;;
9559;SDS011;4818;50.860;4.648;2023-04-03T03:11:51;7.90;;;4.03;;
9559;SDS011;4818;50.860;4.648;2023-04-03T03:14:17;11.10;;;5.55;;
9559;SDS011;4818;50.860;4.648;2023-04-03T03:16:43;8.70;;;4.18;;
9559;SDS011;4818;50.860;4.648;2023-04-03T03:19:10;10.35;;;4.03;;
9559;SDS011;4818;50.860;4.648;2023-04-03T03:21:36;7.72;;;3.88;;
9559;SDS011;4818;50.860;4.648;2023-04-03T03:24:02;6.05;;;3.47;;
9559;SDS011;4818;50.860;4.648;2023-04-03T03:26:28;5.95;;;4.15;;
9559;SDS011;4818;50.860;4.648;2023-04-03T03:28:55;8.65;;;4.00;;
9559;SDS011;4818;50.860;4.648;2023-04-03T03:31:21;7.20;;;4.38;;
9559;SDS011;4818;50.860;4.648;2023-04-03T03:33:47;6.22;;;4.20;;
9559;SDS011;4818;50.860;4.648;2023-04-03T03:36:13;13.07;;;5.18;;
9559;SDS011;4818;50.860;4.648;2023-04-03T03:38:39;7.95;;;4.45;;
9559;SDS011;4818;50.860;4.648;2023-04-03T03:41:05;8.30;;;4.38;;
9559;SDS011;4818;50.860;4.648;2023-04-03T03:43:32;10.02;;;5.20;;
9559;SDS011;4818;50.860;4.648;2023-04-03T03:45:58;9.82;;;5.55;;
9559;SDS011;4818;50.860;4.648;2023-04-03T03:48:24;7.20;;;5.03;;
9559;SDS011;4818;50.860;4.648;2023-04-03T03:50:50;8.77;;;4.88;;
9559;SDS011;4818;50.860;4.648;2023-04-03T03:53:16;7.78;;;4.72;;
9559;SDS011;4818;50.860;4.648;2023-04-03T03:55:43;10.00;;;5.35;;
9559;SDS011;4818;50.860;4.648;2023-04-03T03:58:09;11.65;;;5.07;;
9559;SDS011;4818;50.860;4.648;2023-04-03T04:00:35;10.90;;;5.03;;
9559;SDS011;4818;50.860;4.648;2023-04-03T04:03:01;10.30;;;5.63;;
9559;SDS011;4818;50.860;4.648;2023-04-03T04:05:27;6.57;;;5.13;;
9559;SDS011;4818;50.860;4.648;2023-04-03T04:07:53;9.75;;;5.20;;
9559;SDS011;4818;50.860;4.648;2023-04-03T04:10:20;10.55;;;5.45;;
9559;SDS011;4818;50.860;4.648;2023-04-03T04:12:46;8.18;;;5.45;;
9559;SDS011;4818;50.860;4.648;2023-04-03T04:15:14;11.25;;;5.97;;
9559;SDS011;4818;50.860;4.648;2023-04-03T04:17:40;8.27;;;5.05;;
9559;SDS011;4818;50.860;4.648;2023-04-03T04:20:06;11.05;;;6.75;;
9559;SDS011;4818;50.860;4.648;2023-04-03T04:22:33;10.48;;;5.85;;
9559;SDS011;4818;50.860;4.648;2023-04-03T04:24:59;9.18;;;5.57;;
9559;SDS011;4818;50.860;4.648;2023-04-03T04:27:25;10.50;;;6.60;;
9559;SDS011;4818;50.860;4.648;2023-04-03T04:29:51;10.43;;;5.95;;
9559;SDS011;4818;50.860;4.648;2023-04-03T04:32:18;9.85;;;5.63;;
9559;SDS011;4818;50.860;4.648;2023-04-03T04:34:44;10.80;;;6.47;;
9559;SDS011;4818;50.860;4.648;2023-04-03T04:37:10;10.90;;;6.90;;
9559;SDS011;4818;50.860;4.648;2023-04-03T04:39:36;11.98;;;6.68;;
9559;SDS011;4818;50.860;4.648;2023-04-03T04:42:02;11.20;;;6.00;;
9559;SDS011;4818;50.860;4.648;2023-04-03T04:44:28;10.35;;;6.50;;
9559;SDS011;4818;50.860;4.648;2023-04-03T04:46:55;19.17;;;7.45;;
9559;SDS011;4818;50.860;4.648;2023-04-03T04:49:21;13.07;;;6.13;;
9559;SDS011;4818;50.860;4.648;2023-04-03T04:51:47;13.00;;;6.80;;
9559;SDS011;4818;50.860;4.648;2023-04-03T04:54:13;10.23;;;6.03;;
9559;SDS011;4818;50.860;4.648;2023-04-03T04:56:39;12.48;;;6.85;;
9559;SDS011;4818;50.860;4.648;2023-04-03T04:59:06;12.07;;;6.57;;
9559;SDS011;4818;50.860;4.648;2023-04-03T05:01:32;10.02;;;5.78;;
9559;SDS011;4818;50.860;4.648;2023-04-03T05:03:58;11.10;;;6.47;;
9559;SDS011;4818;50.860;4.648;2023-04-03T05:06:24;9.43;;;5.35;;
9559;SDS011;4818;50.860;4.648;2023-04-03T05:08:50;13.85;;;7.15;;
9559;SDS011;4818;50.860;4.648;2023-04-03T05:11:16;11.13;;;6.35;;
9559;SDS011;4818;50.860;4.648;2023-04-03T05:13:42;11.98;;;6.55;;
9559;SDS011;4818;50.860;4.648;2023-04-03T05:16:08;11.95;;;7.32;;
9559;SDS011;4818;50.860;4.648;2023-04-03T05:18:34;10.50;;;6.43;;
9559;SDS011;4818;50.860;4.648;2023-04-03T05:21:01;11.38;;;6.47;;
9559;SDS011;4818;50.860;4.648;2023-04-03T05:23:27;11.20;;;6.85;;
9559;SDS011;4818;50.860;4.648;2023-04-03T05:25:53;11.63;;;6.65;;
9559;SDS011;4818;50.860;4.648;2023-04-03T05:28:19;12.07;;;7.28;;
9559;SDS011;4818;50.860;4.648;2023-04-03T05:30:45;11.88;;;7.03;;
9559;SDS011;4818;50.860;4.648;2023-04-03T05:33:18;9.98;;;6.82;;
9559;SDS011;4818;50.860;4.648;2023-04-03T05:35:44;16.70;;;7.47;;
9559;SDS011;4818;50.860;4.648;2023-04-03T05:38:10;11.30;;;7.25;;
9559;SDS011;4818;50.860;4.648;2023-04-03T05:40:36;12.73;;;7.28;;
9559;SDS011;4818;50.860;4.648;2023-04-03T05:43:03;12.98;;;7.28;;
9559;SDS011;4818;50.860;4.648;2023-04-03T05:45:29;13.27;;;7.68;;
9559;SDS011;4818;50.860;4.648;2023-04-03T05:47:56;12.15;;;7.32;;
9559;SDS011;4818;50.860;4.648;2023-04-03T05:50:22;10.40;;;7.20;;
9559;SDS011;4818;50.860;4.648;2023-04-03T05:52:49;11.40;;;7.57;;
9559;SDS011;4818;50.860;4.648;2023-04-03T05:55:16;13.50;;;7.70;;
9559;SDS011;4818;50.860;4.648;2023-04-03T05:57:42;14.98;;;8.32;;
9559;SDS011;4818;50.860;4.648;2023-04-03T06:00:11;15.15;;;7.50;;
9559;SDS011;4818;50.860;4.648;2023-04-03T06:02:38;13.98;;;7.35;;
9559;SDS011;4818;50.860;4.648;2023-04-03T06:05:05;15.02;;;7.95;;
9559;SDS011;4818;50.860;4.648;2023-04-03T06:07:32;10.82;;;7.50;;
9559;SDS011;4818;50.860;4.648;2023-04-03T06:09:58;12.10;;;8.48;;
9559;SDS011;4818;50.860;4.648;2023-04-03T06:12:25;16.10;;;9.43;;
9559;SDS011;4818;50.860;4.648;2023-04-03T06:14:51;10.52;;;7.72;;
9559;SDS011;4818;50.860;4.648;2023-04-03T06:17:17;13.18;;;7.22;;
9559;SDS011;4818;50.860;4.648;2023-04-03T06:19:43;10.13;;;5.80;;
9559;SDS011;4818;50.860;4.648;2023-04-03T06:22:10;7.28;;;5.13;;
9559;SDS011;4818;50.860;4.648;2023-04-03T06:24:37;5.93;;;5.05;;
9559;SDS011;4818;50.860;4.648;2023-04-03T06:27:03;8.73;;;4.35;;
9559;SDS011;4818;50.860;4.648;2023-04-03T06:29:29;7.25;;;4.10;;
9559;SDS011;4818;50.860;4.648;2023-04-03T06:31:56;8.82;;;4.80;;
9559;SDS011;4818;50.860;4.648;2023-04-03T06:34:22;8.30;;;4.43;;
9559;SDS011;4818;50.860;4.648;2023-04-03T06:36:48;8.93;;;4.72;;
9559;SDS011;4818;50.860;4.648;2023-04-03T06:39:16;10.52;;;4.32;;
9559;SDS011;4818;50.860;4.648;2023-04-03T06:41:43;9.15;;;3.95;;
9559;SDS011;4818;50.860;4.648;2023-04-03T06:44:10;7.90;;;4.28;;
9559;SDS011;4818;50.860;4.648;2023-04-03T06:46:38;8.13;;;3.60;;
9559;SDS011;4818;50.860;4.648;2023-04-03T06:49:04;9.80;;;4.38;;
9559;SDS011;4818;50.860;4.648;2023-04-03T06:51:32;7.55;;;3.47;;
9559;SDS011;4818;50.860;4.648;2023-04-03T06:53:59;6.82;;;4.18;;
9559;SDS011;4818;50.860;4.648;2023-04-03T06:56:26;5.15;;;3.47;;
9559;SDS011;4818;50.860;4.648;2023-04-03T06:58:52;4.43;;;3.70;;
9559;SDS011;4818;50.860;4.648;2023-04-03T07:01:23;4.95;;;3.60;;
9559;SDS011;4818;50.860;4.648;2023-04-03T07:03:50;8.18;;;3.38;;
9559;SDS011;4818;50.860;4.648;2023-04-03T07:06:16;5.25;;;3.08;;
9559;SDS011;4818;50.860;4.648;2023-04-03T07:08:43;6.80;;;4.47;;
9559;SDS011;4818;50.860;4.648;2023-04-03T07:11:11;7.90;;;3.88;;
9559;SDS011;4818;50.860;4.648;2023-04-03T07:13:37;4.18;;;3.13;;
9559;SDS011;4818;50.860;4.648;2023-04-03T07:16:04;7.38;;;3.20;;
9559;SDS011;4818;50.860;4.648;2023-04-03T07:18:33;7.30;;;3.17;;
9559;SDS011;4818;50.860;4.648;2023-04-03T07:21:00;7.70;;;3.28;;
9559;SDS011;4818;50.860;4.648;2023-04-03T07:23:26;4.50;;;3.72;;
9559;SDS011;4818;50.860;4.648;2023-04-03T07:25:52;5.78;;;2.83;;
9559;SDS011;4818;50.860;4.648;2023-04-03T07:28:19;4.80;;;3.15;;
9559;SDS011;4818;50.860;4.648;2023-04-03T07:30:51;4.32;;;2.40;;
9559;SDS011;4818;50.860;4.648;2023-04-03T07:33:18;7.38;;;2.65;;
9559;SDS011;4818;50.860;4.648;2023-04-03T07:35:45;6.05;;;2.78;;
9559;SDS011;4818;50.860;4.648;2023-04-03T07:38:11;3.85;;;2.75;;
9559;SDS011;4818;50.860;4.648;2023-04-03T07:40:38;4.95;;;2.92;;
9559;SDS011;4818;50.860;4.648;2023-04-03T07:43:05;6.07;;;2.72;;
9559;SDS011;4818;50.860;4.648;2023-04-03T07:45:31;6.63;;;2.60;;
9559;SDS011;4818;50.860;4.648;2023-04-03T07:47:59;4.03;;;2.72;;
9559;SDS011;4818;50.860;4.648;2023-04-03T07:50:28;4.38;;;2.92;;
9559;SDS011;4818;50.860;4.648;2023-04-03T07:52:55;5.88;;;1.85;;
9559;SDS011;4818;50.860;4.648;2023-04-03T07:55:22;4.50;;;3.05;;
9559;SDS011;4818;50.860;4.648;2023-04-03T07:57:49;4.13;;;1.92;;
9559;SDS011;4818;50.860;4.648;2023-04-03T08:00:15;4.43;;;1.85;;
9559;SDS011;4818;50.860;4.648;2023-04-03T08:02:42;4.38;;;2.10;;
9559;SDS011;4818;50.860;4.648;2023-04-03T08:05:09;5.50;;;2.00;;
9559;SDS011;4818;50.860;4.648;2023-04-03T08:07:37;5.25;;;2.22;;
9559;SDS011;4818;50.860;4.648;2023-04-03T08:10:03;5.88;;;2.75;;
9559;SDS011;4818;50.860;4.648;2023-04-03T08:12:29;6.78;;;1.88;;
9559;SDS011;4818;50.860;4.648;2023-04-03T08:14:57;4.97;;;2.00;;
9559;SDS011;4818;50.860;4.648;2023-04-03T08:17:23;3.95;;;1.80;;
9559;SDS011;4818;50.860;4.648;2023-04-03T08:19:49;5.43;;;2.00;;
9559;SDS011;4818;50.860;4.648;2023-04-03T08:22:15;4.25;;;1.75;;
9559;SDS011;4818;50.860;4.648;2023-04-03T08:24:41;3.15;;;1.65;;
9559;SDS011;4818;50.860;4.648;2023-04-03T08:27:07;2.92;;;1.17;;
9559;SDS011;4818;50.860;4.648;2023-04-03T08:29:33;2.28;;;1.10;;
9559;SDS011;4818;50.860;4.648;2023-04-03T08:32:02;3.63;;;1.60;;
9559;SDS011;4818;50.860;4.648;2023-04-03T08:34:28;3.42;;;1.05;;
9559;SDS011;4818;50.860;4.648;2023-04-03T08:36:55;4.13;;;1.38;;
9559;SDS011;4818;50.860;4.648;2023-04-03T08:39:21;2.40;;;1.38;;
9559;SDS011;4818;50.860;4.648;2023-04-03T08:41:52;6.43;;;1.60;;
9559;SDS011;4818;50.860;4.648;2023-04-03T08:46:56;3.80;;;1.17;;
9559;SDS011;4818;50.860;4.648;2023-04-03T08:51:51;2.42;;;1.10;;
9559;SDS011;4818;50.860;4.648;2023-04-03T08:54:21;1.92;;;1.00;;
9559;SDS011;4818;50.860;4.648;2023-04-03T08:56:51;5.20;;;1.20;;
9559;SDS011;4818;50.860;4.648;2023-04-03T08:59:24;3.63;;;1.20;;
9559;SDS011;4818;50.860;4.648;2023-04-03T09:01:52;4.28;;;1.05;;
9559;SDS011;4818;50.860;4.648;2023-04-03T09:04:18;4.35;;;1.15;;
9559;SDS011;4818;50.860;4.648;2023-04-03T09:06:45;3.22;;;1.02;;
9559;SDS011;4818;50.860;4.648;2023-04-03T09:17:14;4.07;;;0.60;;
9559;SDS011;4818;50.860;4.648;2023-04-03T09:20:30;2.35;;;0.77;;
9559;SDS011;4818;50.860;4.648;2023-04-03T09:22:34;2.47;;;0.70;;
9559;SDS011;4818;50.860;4.648;2023-04-03T09:27:29;3.38;;;0.70;;
9559;SDS011;4818;50.860;4.648;2023-04-03T09:29:56;4.65;;;0.60;;
9559;SDS011;4818;50.860;4.648;2023-04-03T09:32:26;3.00;;;1.05;;
9559;SDS011;4818;50.860;4.648;2023-04-03T09:34:54;2.53;;;0.70;;
9559;SDS011;4818;50.860;4.648;2023-04-03T09:40:03;2.55;;;0.68;;
9559;SDS011;4818;50.860;4.648;2023-04-03T09:42:31;1.98;;;0.47;;
9559;SDS011;4818;50.860;4.648;2023-04-03T09:44:58;3.63;;;1.00;;
9559;SDS011;4818;50.860;4.648;2023-04-03T09:49:51;5.75;;;1.15;;
9559;SDS011;4818;50.860;4.648;2023-04-03T09:52:34;5.70;;;0.75;;
9559;SDS011;4818;50.860;4.648;2023-04-03T09:55:06;3.47;;;0.80;;
9559;SDS011;4818;50.860;4.648;2023-04-03T09:57:34;2.53;;;0.60;;
9559;SDS011;4818;50.860;4.648;2023-04-03T10:00:19;2.78;;;0.70;;
9559;SDS011;4818;50.860;4.648;2023-04-03T10:02:46;3.10;;;0.65;;
9559;SDS011;4818;50.860;4.648;2023-04-03T10:05:30;2.35;;;0.45;;
9559;SDS011;4818;50.860;4.648;2023-04-03T10:08:07;3.88;;;0.95;;
9559;SDS011;4818;50.860;4.648;2023-04-03T10:10:33;3.42;;;0.70;;
9559;SDS011;4818;50.860;4.648;2023-04-03T10:13:07;5.32;;;1.10;;
9559;SDS011;4818;50.860;4.648;2023-04-03T10:15:39;2.55;;;0.57;;
9559;SDS011;4818;50.860;4.648;2023-04-03T10:18:10;3.72;;;0.70;;
9559;SDS011;4818;50.860;4.648;2023-04-03T10:20:43;1.85;;;0.80;;
9559;SDS011;4818;50.860;4.648;2023-04-03T10:25:52;2.83;;;0.85;;
9559;SDS011;4818;50.860;4.648;2023-04-03T10:28:31;1.60;;;0.52;;
9559;SDS011;4818;50.860;4.648;2023-04-03T10:33:31;4.25;;;1.10;;
9559;SDS011;4818;50.860;4.648;2023-04-03T10:38:58;2.78;;;0.60;;
9559;SDS011;4818;50.860;4.648;2023-04-03T10:46:35;1.70;;;0.40;;
9559;SDS011;4818;50.860;4.648;2023-04-03T10:51:33;1.50;;;0.60;;
9559;SDS011;4818;50.860;4.648;2023-04-03T10:56:47;2.72;;;0.50;;
9559;SDS011;4818;50.860;4.648;2023-04-03T11:01:44;2.15;;;0.40;;
9559;SDS011;4818;50.860;4.648;2023-04-03T11:04:11;2.90;;;0.65;;
9559;SDS011;4818;50.860;4.648;2023-04-03T11:06:39;2.83;;;0.50;;
9559;SDS011;4818;50.860;4.648;2023-04-03T11:09:25;3.88;;;0.75;;
9559;SDS011;4818;50.860;4.648;2023-04-03T11:12:12;2.28;;;0.35;;
9559;SDS011;4818;50.860;4.648;2023-04-03T11:14:40;3.55;;;0.40;;
9559;SDS011;4818;50.860;4.648;2023-04-03T11:17:11;1.75;;;0.40;;
9559;SDS011;4818;50.860;4.648;2023-04-03T11:22:30;2.35;;;0.50;;
9559;SDS011;4818;50.860;4.648;2023-04-03T11:30:18;3.03;;;0.30;;
9559;SDS011;4818;50.860;4.648;2023-04-03T11:33:02;1.77;;;0.20;;
9559;SDS011;4818;50.860;4.648;2023-04-03T11:35:33;2.03;;;0.40;;
9559;SDS011;4818;50.860;4.648;2023-04-03T11:38:02;3.47;;;0.30;;
9559;SDS011;4818;50.860;4.648;2023-04-03T11:40:32;5.38;;;0.50;;
9559;SDS011;4818;50.860;4.648;2023-04-03T12:04:12;5.00;;;0.32;;
9559;SDS011;4818;50.860;4.648;2023-04-03T12:13:34;1.42;;;0.30;;
9559;SDS011;4818;50.860;4.648;2023-04-03T12:16:02;2.28;;;0.40;;
9559;SDS011;4818;50.860;4.648;2023-04-03T12:19:25;1.65;;;0.30;;
9559;SDS011;4818;50.860;4.648;2023-04-03T12:29:01;3.03;;;0.40;;
9559;SDS011;4818;50.860;4.648;2023-04-03T12:31:33;1.25;;;0.30;;
9559;SDS011;4818;50.860;4.648;2023-04-03T12:34:30;1.35;;;0.20;;
9559;SDS011;4818;50.860;4.648;2023-04-03T12:36:59;3.35;;;0.30;;
9559;SDS011;4818;50.860;4.648;2023-04-03T12:39:42;2.35;;;0.38;;
9559;SDS011;4818;50.860;4.648;2023-04-03T12:47:08;2.00;;;0.20;;
9559;SDS011;4818;50.860;4.648;2023-04-03T12:49:42;0.95;;;0.20;;
9559;SDS011;4818;50.860;4.648;2023-04-03T12:52:17;2.10;;;0.30;;
9559;SDS011;4818;50.860;4.648;2023-04-03T12:54:45;1.73;;;0.25;;
9559;SDS011;4818;50.860;4.648;2023-04-03T12:57:19;0.73;;;0.20;;
9559;SDS011;4818;50.860;4.648;2023-04-03T12:59:46;3.00;;;0.30;;
9559;SDS011;4818;50.860;4.648;2023-04-03T13:02:34;2.17;;;0.20;;
9559;SDS011;4818;50.860;4.648;2023-04-03T13:05:08;2.03;;;0.30;;
9559;SDS011;4818;50.860;4.648;2023-04-03T13:07:36;3.35;;;0.30;;
9559;SDS011;4818;50.860;4.648;2023-04-03T13:12:33;1.52;;;0.40;;
9559;SDS011;4818;50.860;4.648;2023-04-03T13:15:12;4.38;;;0.40;;
9559;SDS011;4818;50.860;4.648;2023-04-03T13:17:39;2.10;;;0.40;;
9559;SDS011;4818;50.860;4.648;2023-04-03T13:20:18;1.27;;;0.40;;
9559;SDS011;4818;50.860;4.648;2023-04-03T13:25:14;2.38;;;0.32;;
9559;SDS011;4818;50.860;4.648;2023-04-03T13:27:40;3.35;;;0.40;;
9559;SDS011;4818;50.860;4.648;2023-04-03T13:30:18;4.13;;;0.47;;
9559;SDS011;4818;50.860;4.648;2023-04-03T13:32:45;3.35;;;0.40;;
9559;SDS011;4818;50.860;4.648;2023-04-03T13:35:25;1.77;;;0.32;;
9559;SDS011;4818;50.860;4.648;2023-04-03T13:40:17;2.50;;;0.30;;
9559;SDS011;4818;50.860;4.648;2023-04-03T13:42:43;4.03;;;0.40;;
9559;SDS011;4818;50.860;4.648;2023-04-03T13:47:40;1.20;;;0.20;;
9559;SDS011;4818;50.860;4.648;2023-04-03T13:50:23;3.90;;;0.30;;
9559;SDS011;4818;50.860;4.648;2023-04-03T13:53:00;1.77;;;0.40;;
9559;SDS011;4818;50.860;4.648;2023-04-03T13:55:28;1.15;;;0.22;;
9559;SDS011;4818;50.860;4.648;2023-04-03T14:03:16;1.80;;;0.38;;
9559;SDS011;4818;50.860;4.648;2023-04-03T14:05:44;0.90;;;0.20;;
9559;SDS011;4818;50.860;4.648;2023-04-03T14:08:11;1.45;;;0.40;;
9559;SDS011;4818;50.860;4.648;2023-04-03T14:10:37;3.58;;;0.40;;
9559;SDS011;4818;50.860;4.648;2023-04-03T14:13:03;1.63;;;0.20;;
9559;SDS011;4818;50.860;4.648;2023-04-03T14:15:30;1.77;;;0.20;;
9559;SDS011;4818;50.860;4.648;2023-04-03T14:17:57;2.22;;;0.28;;
9559;SDS011;4818;50.860;4.648;2023-04-03T14:20:24;1.20;;;0.30;;
9559;SDS011;4818;50.860;4.648;2023-04-03T14:22:51;1.70;;;0.75;;
9559;SDS011;4818;50.860;4.648;2023-04-03T14:25:18;3.08;;;0.22;;
9559;SDS011;4818;50.860;4.648;2023-04-03T14:27:45;1.48;;;0.30;;
9559;SDS011;4818;50.860;4.648;2023-04-03T14:30:24;1.05;;;0.20;;
9559;SDS011;4818;50.860;4.648;2023-04-03T14:32:50;3.45;;;0.30;;
9559;SDS011;4818;50.860;4.648;2023-04-03T14:35:17;2.30;;;0.30;;
9559;SDS011;4818;50.860;4.648;2023-04-03T14:37:44;1.35;;;0.20;;
9559;SDS011;4818;50.860;4.648;2023-04-03T14:40:18;3.42;;;0.30;;
9559;SDS011;4818;50.860;4.648;2023-04-03T14:42:44;2.03;;;0.20;;
9559;SDS011;4818;50.860;4.648;2023-04-03T14:45:13;2.55;;;0.43;;
9559;SDS011;4818;50.860;4.648;2023-04-03T14:47:41;1.48;;;0.32;;
9559;SDS011;4818;50.860;4.648;2023-04-03T14:50:11;3.53;;;0.50;;
9559;SDS011;4818;50.860;4.648;2023-04-03T14:55:06;2.00;;;0.20;;
9559;SDS011;4818;50.860;4.648;2023-04-03T14:57:33;4.32;;;0.40;;
9559;SDS011;4818;50.860;4.648;2023-04-03T14:59:59;2.30;;;0.30;;
9559;SDS011;4818;50.860;4.648;2023-04-03T15:02:27;1.17;;;0.30;;
9559;SDS011;4818;50.860;4.648;2023-04-03T15:04:54;1.00;;;0.20;;
9559;SDS011;4818;50.860;4.648;2023-04-03T15:07:21;1.88;;;0.60;;
9559;SDS011;4818;50.860;4.648;2023-04-03T15:09:48;1.33;;;0.30;;
9559;SDS011;4818;50.860;4.648;2023-04-03T15:12:15;2.25;;;1.05;;
9559;SDS011;4818;50.860;4.648;2023-04-03T15:14:41;2.92;;;0.68;;
9559;SDS011;4818;50.860;4.648;2023-04-03T15:17:10;3.47;;;0.30;;
9559;SDS011;4818;50.860;4.648;2023-04-03T15:19:40;2.05;;;0.40;;
9559;SDS011;4818;50.860;4.648;2023-04-03T15:22:08;2.03;;;0.50;;
9559;SDS011;4818;50.860;4.648;2023-04-03T15:24:34;2.60;;;0.55;;
9559;SDS011;4818;50.860;4.648;2023-04-03T15:27:00;2.47;;;0.52;;
9559;SDS011;4818;50.860;4.648;2023-04-03T15:29:27;1.20;;;0.38;;
9559;SDS011;4818;50.860;4.648;2023-04-03T15:31:53;1.83;;;0.40;;
9559;SDS011;4818;50.860;4.648;2023-04-03T15:34:19;2.75;;;0.57;;
9559;SDS011;4818;50.860;4.648;2023-04-03T15:36:46;1.98;;;0.30;;
9559;SDS011;4818;50.860;4.648;2023-04-03T15:39:12;2.05;;;0.40;;
9559;SDS011;4818;50.860;4.648;2023-04-03T15:41:39;1.75;;;0.47;;
9559;SDS011;4818;50.860;4.648;2023-04-03T15:44:05;5.40;;;0.52;;
9559;SDS011;4818;50.860;4.648;2023-04-03T15:46:32;2.65;;;0.50;;
9559;SDS011;4818;50.860;4.648;2023-04-03T15:48:58;2.88;;;0.88;;
9559;SDS011;4818;50.860;4.648;2023-04-03T15:51:24;6.43;;;0.50;;
9559;SDS011;4818;50.860;4.648;2023-04-03T15:53:50;5.22;;;0.50;;
9559;SDS011;4818;50.860;4.648;2023-04-03T15:56:16;2.05;;;0.93;;
9559;SDS011;4818;50.860;4.648;2023-04-03T15:58:43;4.10;;;0.50;;
9559;SDS011;4818;50.860;4.648;2023-04-03T16:01:09;2.08;;;0.40;;
9559;SDS011;4818;50.860;4.648;2023-04-03T16:03:36;4.10;;;0.65;;
9559;SDS011;4818;50.860;4.648;2023-04-03T16:06:03;2.20;;;0.35;;
9559;SDS011;4818;50.860;4.648;2023-04-03T16:08:30;3.70;;;0.55;;
9559;SDS011;4818;50.860;4.648;2023-04-03T16:10:56;4.30;;;0.70;;
9559;SDS011;4818;50.860;4.648;2023-04-03T16:13:22;2.03;;;0.40;;
9559;SDS011;4818;50.860;4.648;2023-04-03T16:15:48;5.85;;;0.50;;
9559;SDS011;4818;50.860;4.648;2023-04-03T16:18:14;1.95;;;0.50;;
9559;SDS011;4818;50.860;4.648;2023-04-03T16:20:43;4.13;;;1.35;;
9559;SDS011;4818;50.860;4.648;2023-04-03T16:23:09;2.88;;;0.80;;
9559;SDS011;4818;50.860;4.648;2023-04-03T16:25:35;1.02;;;0.38;;
9559;SDS011;4818;50.860;4.648;2023-04-03T16:28:01;1.10;;;0.30;;
9559;SDS011;4818;50.860;4.648;2023-04-03T16:30:28;6.30;;;0.68;;
9559;SDS011;4818;50.860;4.648;2023-04-03T16:32:54;2.17;;;0.63;;
9559;SDS011;4818;50.860;4.648;2023-04-03T16:35:20;3.92;;;0.50;;
9559;SDS011;4818;50.860;4.648;2023-04-03T16:37:46;1.77;;;0.43;;
9559;SDS011;4818;50.860;4.648;2023-04-03T16:40:13;2.95;;;0.50;;
9559;SDS011;4818;50.860;4.648;2023-04-03T16:42:39;2.70;;;0.65;;
9559;SDS011;4818;50.860;4.648;2023-04-03T16:45:05;3.95;;;0.50;;
9559;SDS011;4818;50.860;4.648;2023-04-03T16:47:32;3.38;;;0.40;;
9559;SDS011;4818;50.860;4.648;2023-04-03T16:49:58;3.17;;;0.65;;
9559;SDS011;4818;50.860;4.648;2023-04-03T16:52:24;2.65;;;0.88;;
9559;SDS011;4818;50.860;4.648;2023-04-03T16:54:50;1.27;;;0.60;;
9559;SDS011;4818;50.860;4.648;2023-04-03T16:57:20;2.95;;;0.40;;
9559;SDS011;4818;50.860;4.648;2023-04-03T16:59:47;2.08;;;0.40;;
9559;SDS011;4818;50.860;4.648;2023-04-03T17:02:13;5.32;;;0.77;;
9559;SDS011;4818;50.860;4.648;2023-04-03T17:04:39;2.30;;;0.60;;
9559;SDS011;4818;50.860;4.648;2023-04-03T17:07:05;2.70;;;0.50;;
9559;SDS011;4818;50.860;4.648;2023-04-03T17:09:32;4.15;;;0.70;;